Terminal Aerodrome Forecast
Issued by NWS Sterling, VA

Home | Current Version | Previous Version | Text Only | Print | Product List | Glossary On
Versions: 1 2 3 4 5 6 7 8 9 10 11 12 13 14 15 16 17 18 19 20 21 22 23 24 25
000
FTUS41 KLWX 010242 AAA
TAFDCA
TAF AMD
KDCA 010242Z 0103/0124 05008KT P6SM FEW060 SCT250
     FM011200 20012G20KT P6SM SCT025 BKN030
     FM011400 20013G21KT P6SM SCT030 BKN035=

USA.gov is the U.S. government's official web portal to all federal, state and local government web resources and services.